« Back
NWS Peachtree City, Ga » Text Product » CSG Terminal Aerodrome Forecast


Printer-friendly Version
Current Version              Previous Versions:   1  2  3  4  5  6  7  8  9  

Terminal Aerodrome Forecast

488
FTUS42 KFFC 292330
TAFCSG
TAF
KCSG 292330Z 3000/3024 24006KT P6SM BKN250
     FM301000 15003KT P6SM BKN250
     FM301500 19008KT P6SM SCT035 PROB30 3018/3024 4SM -TSRA BR
      BKN030CB=

USA.gov is the U.S. government's official web portal to all federal, state and local government web resources and services.